createdAt,value
2019-04-10T00:01:19.884Z,109.67
2019-04-10T00:06:24.023Z,103.03
2019-04-10T00:11:28.970Z,113.97
2019-04-10T00:16:33.325Z,112.47
2019-04-10T00:21:37.603Z,105.30
2019-04-10T00:26:41.871Z,101.93
2019-04-10T00:31:46.607Z,107.53
2019-04-10T00:36:51.349Z,105.57
2019-04-10T00:41:56.671Z,106.87
2019-04-10T00:47:02.452Z,106.43
2019-04-10T00:52:07.993Z,107.37
2019-04-10T00:57:12.812Z,102.07
2019-04-10T01:02:18.566Z,106.50
2019-04-10T01:07:33.750Z,106.90
2019-04-10T01:12:30.783Z,103.50
2019-04-10T01:17:35.731Z,102.30
2019-04-10T01:22:41.471Z,102.93
2019-04-10T01:27:47.903Z,101.60
2019-04-10T01:32:52.958Z,98.50
2019-04-10T01:38:01.063Z,110.17
2019-04-10T01:43:11.501Z,99.30
2019-04-10T01:48:12.113Z,93.23
2019-04-10T01:53:17.630Z,96.00
2019-04-10T01:58:23.512Z,100.47
2019-04-10T02:03:29.836Z,101.43
2019-04-10T02:08:34.803Z,101.80
2019-04-10T02:13:40.131Z,101.80
2019-04-10T02:18:46.089Z,97.03
2019-04-10T02:23:52.320Z,101.87
2019-04-10T02:28:57.660Z,96.20
2019-04-10T02:34:04.614Z,98.50
2019-04-10T02:39:20.761Z,95.37
2019-04-10T02:44:16.442Z,101.50
2019-04-10T02:49:22.462Z,89.30
2019-04-10T02:54:28.946Z,95.03
2019-04-10T02:59:35.070Z,97.87
2019-04-10T03:04:40.525Z,94.50
2019-04-10T03:10:00.948Z,101.50
2019-04-10T03:14:54.896Z,90.80
2019-04-10T03:20:00.261Z,96.07
2019-04-10T03:25:06.016Z,92.43
2019-04-10T03:30:14.577Z,94.97
2019-04-10T03:35:24.852Z,91.53
2019-04-10T03:40:31.264Z,88.77
2019-04-10T03:45:37.007Z,90.53
2019-04-10T03:50:42.114Z,87.63
2019-04-10T03:55:47.337Z,99.00
2019-04-10T04:00:52.902Z,85.80
2019-04-10T04:06:03.697Z,86.47
2019-04-10T04:11:09.268Z,93.20
2019-04-10T04:16:15.622Z,89.93
2019-04-10T04:21:21.279Z,82.03
2019-04-10T04:26:31.657Z,84.97
2019-04-10T04:31:38.393Z,78.17
2019-04-10T04:36:43.129Z,81.60
2019-04-10T04:41:48.227Z,81.80
2019-04-10T04:46:52.699Z,63.27
2019-04-10T04:51:58.157Z,72.57
2019-04-10T04:57:02.986Z,70.97
2019-04-10T05:02:07.936Z,71.20
2019-04-10T05:07:14.829Z,64.53
2019-04-10T05:12:20.798Z,67.97
2019-04-10T05:17:28.725Z,68.03
2019-04-10T05:22:34.624Z,67.77
2019-04-10T05:27:39.839Z,65.03
2019-04-10T05:32:45.879Z,63.47
2019-04-10T05:38:00.414Z,64.87
2019-04-10T05:43:05.958Z,61.80
2019-04-10T05:48:17.424Z,60.20
2019-04-10T05:53:23.188Z,60.57
2019-04-10T05:58:29.016Z,56.53
2019-04-10T06:03:35.315Z,52.47
2019-04-10T06:08:41.518Z,53.33
2019-04-10T06:13:46.469Z,51.10
2019-04-10T06:18:53.536Z,55.83
2019-04-10T06:24:00.162Z,54.03
2019-04-10T06:34:18.856Z,48.90
2019-04-10T06:39:24.853Z,48.90
2019-04-10T06:49:43.209Z,45.47
2019-04-10T06:54:49.100Z,44.03
2019-04-10T06:59:54.831Z,47.43
2019-04-10T07:05:05.798Z,49.07
2019-04-10T07:10:20.561Z,50.33
2019-04-10T07:15:19.134Z,45.10
2019-04-10T07:20:24.087Z,47.80
2019-04-10T07:25:27.945Z,47.20
2019-04-10T07:30:33.863Z,44.37
2019-04-10T07:35:38.646Z,45.03
2019-04-10T07:40:47.030Z,44.30
2019-04-10T07:45:51.990Z,41.70
2019-04-10T07:50:56.497Z,49.17
2019-04-10T07:56:10.479Z,43.43
2019-04-10T08:01:12.027Z,42.47
2019-04-10T08:06:17.902Z,39.07
2019-04-10T08:11:22.087Z,37.90
2019-04-10T08:16:27.380Z,44.03
2019-04-10T08:21:33.951Z,39.87
2019-04-10T08:26:43.058Z,40.10
2019-04-10T08:31:48.343Z,38.33
2019-04-10T08:36:55.061Z,38.50
2019-04-10T08:41:58.566Z,38.30
2019-04-10T08:47:03.471Z,37.93
2019-04-10T08:52:08.706Z,44.40
2019-04-10T08:57:13.989Z,36.30
2019-04-10T09:02:20.039Z,40.13
2019-04-10T09:07:26.350Z,40.13
2019-04-10T09:12:34.014Z,40.27
2019-04-10T09:17:39.651Z,39.73
2019-04-10T09:23:10.357Z,44.10
2019-04-10T09:27:51.832Z,41.90
2019-04-10T09:32:58.964Z,35.20
2019-04-10T09:38:04.580Z,36.80
2019-04-10T09:43:11.333Z,37.50
2019-04-10T09:48:17.390Z,33.63
2019-04-10T09:53:22.932Z,33.77
2019-04-10T09:58:29.573Z,32.13
2019-04-10T10:03:34.814Z,33.93
2019-04-10T10:08:41.647Z,32.73
2019-04-10T10:13:48.355Z,32.00
2019-04-10T10:18:54.357Z,32.60
2019-04-10T10:23:58.643Z,35.30
2019-04-10T10:29:06.886Z,33.87
2019-04-10T10:34:12.332Z,33.57
2019-04-10T10:39:19.279Z,31.53
2019-04-10T10:44:26.240Z,36.20
2019-04-10T10:49:34.771Z,38.70
2019-04-10T10:54:41.097Z,36.80
2019-04-10T10:59:46.647Z,37.03
2019-04-10T11:04:53.884Z,34.07
2019-04-10T11:10:01.161Z,38.30
2019-04-10T11:15:09.991Z,35.50
2019-04-10T11:20:16.028Z,35.77
2019-04-10T11:25:22.135Z,31.87
2019-04-10T11:30:28.610Z,33.63
2019-04-10T11:35:39.662Z,30.23
2019-04-10T11:40:43.266Z,26.43
2019-04-10T11:45:52.442Z,27.37
2019-04-10T11:50:58.929Z,26.50
2019-04-10T11:56:05.170Z,25.47
2019-04-10T16:45:40.441Z,21.43
2019-04-10T16:50:47.791Z,20.90
2019-04-10T16:55:54.307Z,22.23
2019-04-10T17:00:59.346Z,23.03
2019-04-10T17:06:04.015Z,30.23
2019-04-10T17:11:09.184Z,20.80
2019-04-10T17:16:14.046Z,26.63
2019-04-10T17:21:18.468Z,22.57
2019-04-10T17:26:24.720Z,23.53
2019-04-10T17:31:30.784Z,26.57
2019-04-10T17:36:37.283Z,26.10
2019-04-10T17:41:42.122Z,25.20
2019-04-10T17:46:49.166Z,24.33
2019-04-10T17:51:54.550Z,22.83
2019-04-10T17:57:00.331Z,28.10
2019-04-10T18:02:11.674Z,27.83
2019-04-10T18:07:19.680Z,27.20
2019-04-10T18:12:25.097Z,22.00
2019-04-10T18:17:31.178Z,22.77
2019-04-10T18:22:36.842Z,23.73
2019-04-10T18:27:42.587Z,25.27
2019-04-10T18:32:48.148Z,22.63
2019-04-10T18:37:55.115Z,27.70
2019-04-10T18:43:02.144Z,26.60
2019-04-10T18:48:08.321Z,28.97
2019-04-10T18:53:15.010Z,26.80
2019-04-10T18:58:25.633Z,25.80
2019-04-10T19:04:04.073Z,23.67
2019-04-10T19:09:15.738Z,20.63
2019-04-10T19:14:16.299Z,22.03
2019-04-10T19:19:21.509Z,19.20
2019-04-10T19:24:28.484Z,18.53
2019-04-10T19:29:33.807Z,20.40
2019-04-10T19:34:39.312Z,20.40
2019-04-10T19:39:45.221Z,20.63
2019-04-10T19:44:50.990Z,15.47
2019-04-10T19:49:57.122Z,21.13
2019-04-10T19:55:03.275Z,17.07
2019-04-10T20:00:10.673Z,31.13
2019-04-10T20:05:16.893Z,19.10
2019-04-10T20:10:22.060Z,18.00
2019-04-10T20:15:27.312Z,18.30
2019-04-10T20:20:32.903Z,18.07
2019-04-10T20:25:36.940Z,19.60
2019-04-10T20:30:42.463Z,21.23
2019-04-10T20:35:47.202Z,21.83
2019-04-10T20:40:51.725Z,18.87
2019-04-10T20:45:55.937Z,18.47
2019-04-10T20:51:00.879Z,18.37
2019-04-10T20:56:06.244Z,18.23
2019-04-10T21:01:12.395Z,20.37
2019-04-10T21:06:17.608Z,18.00
2019-04-10T21:11:22.626Z,16.10
2019-04-10T21:16:28.422Z,16.90
2019-04-10T21:21:32.946Z,17.10
2019-04-10T21:26:37.441Z,17.60
2019-04-10T21:32:07.319Z,18.63
2019-04-10T21:37:13.584Z,14.93
2019-04-10T21:42:22.332Z,17.83
2019-04-10T21:47:25.676Z,19.83
2019-04-10T21:52:30.722Z,20.43
2019-04-10T21:57:35.421Z,19.00
2019-04-10T22:02:40.575Z,19.73
2019-04-10T22:08:10.545Z,16.27
2019-04-10T22:13:15.601Z,19.83
2019-04-10T22:18:21.127Z,16.60
2019-04-10T22:23:26.537Z,17.37
2019-04-10T22:28:32.956Z,15.20
2019-04-10T22:33:38.500Z,17.40
2019-04-10T22:38:44.010Z,16.20
2019-04-10T22:43:49.135Z,17.60
2019-04-10T22:48:55.650Z,18.90
2019-04-10T22:54:01.873Z,17.13
2019-04-10T22:59:07.990Z,17.27
2019-04-10T23:04:14.159Z,16.87
2019-04-10T23:09:20.148Z,18.47
2019-04-10T23:14:25.444Z,24.73
2019-04-10T23:19:30.496Z,18.10
2019-04-10T23:24:35.903Z,17.30
2019-04-10T23:29:42.226Z,19.30
2019-04-10T23:34:49.210Z,21.83
2019-04-10T23:39:55.197Z,27.43
2019-04-10T23:45:00.120Z,20.93
2019-04-10T23:50:06.036Z,19.60
2019-04-10T23:55:11.009Z,24.20
